NFSM7: N Fork Spring River nr Purcell, MO

                                SHEF ID:       NFSM7     N Fork Spring River nr Purcell, MO
STATION TYPE:

STAGE RIV-FLOW
ft cfs
Ccp-Rev Ccp-Rev
(America/Chicago)
04/21 00:00 7.31 1504
04/21 01:00 7.08 1403
04/21 02:00 6.84 1298
04/21 03:00 6.67 1224
04/21 04:00 6.55 1173
04/21 05:00 6.35 1086
04/21 06:00 6.21 1017
04/21 07:00 6.09 960
04/21 08:00 5.99 914
04/21 09:00 5.89 869
04/21 10:00 5.81 833
04/21 11:00 5.71 790
04/21 12:00 5.64 760
04/21 13:00 5.59 740
04/21 14:00 5.52 711
04/21 15:00 5.42 671
04/21 16:00 5.38 655
04/21 17:00 5.33 636
04/21 18:00 5.30 624
04/21 19:00 5.25 605
04/21 20:00 5.24 601
04/21 21:00 5.21 590
04/21 22:00 5.16 572
04/21 23:00 ---- ----
Data processed at Wed 22Apr2026 04:45 GMT

NOTICE: If you are parsing this page

Please convert to using our Data API. Starting early 2026 we will be migrating to: https://water.usace.army.mil with modern pages rendered in JavaScript. When this migration completes you will no longer be able to scrape this page! CWMSDataAPI (CDA)

Timeseries IDs (TSIDs)

TSIDs used from left to right in the data table
PURS.Stage.Inst.1Hour.0.Ccp-Rev
PURS.Flow.Inst.1Hour.0.Ccp-Rev

                            

All information presented herein is the property of the government of the United States of America and may be revised or deleted at any time without prior notice. Dissemination of this information without the expressed written consent of the Public Affairs Office, Tulsa District U.S. Army Corps of Engineers is strictly prohibited. These data are gathered electronically and, as presented, have NOT undergone any form of quality control. These data are NOT guaranteed to be valid or correct.